Time;durP1;ratioP1;P1;durP2;ratioP2;P2;SDS_P1;SDS_P2;PMS_P1;PMS_P2;Temp;Humidity;BMP_temperature;BMP_pressure;BME280_temperature;BME280_humidity;BME280_pressure;Samples;Min_cycle;Max_cycle;Signal;HPM_P1;HPM_P2
2022/08/07 00:01:06;;;;;;;5.47;4.65;;;;;;;22.08;49.66;94555.69;5091905;28;20516;-76
2022/08/07 00:03:32;;;;;;;5.20;4.70;;;;;;;21.95;49.63;94547.75;5092267;28;20032;-76
2022/08/07 00:05:57;;;;;;;5.43;4.35;;;;;;;21.99;49.87;94556.13;5072222;28;20035;-76
2022/08/07 00:08:23;;;;;;;5.30;4.80;;;;;;;21.86;49.63;94543.69;5092288;28;20051;-76
2022/08/07 00:10:48;;;;;;;5.50;4.70;;;;;;;21.99;49.74;94561.41;5091969;28;20478;-76
2022/08/07 00:13:14;;;;;;;6.15;4.30;;;;;;;21.86;50.33;94562.22;5075221;28;20066;-76
2022/08/07 00:15:40;;;;;;;5.30;4.80;;;;;;;21.97;49.88;94566.09;5092589;28;20035;-76
2022/08/07 00:18:05;;;;;;;5.82;4.65;;;;;;;21.90;50.58;94550.22;5091805;28;20060;-76
2022/08/07 00:20:31;;;;;;;5.28;4.40;;;;;;;22.05;49.97;94560.59;5093493;28;20027;-76
2022/08/07 00:22:56;;;;;;;4.78;4.07;;;;;;;22.08;50.07;94563.63;5075365;28;20123;-76
2022/08/07 00:25:23;;;;;;;7.07;4.82;;;;;;;22.08;49.49;94557.53;5075233;28;20459;-76
2022/08/07 00:27:49;;;;;;;5.18;4.60;;;;;;;22.13;50.20;94560.38;5091692;28;20028;-76
2022/08/07 00:30:15;;;;;;;5.13;4.60;;;;;;;22.10;49.87;94566.09;5092286;28;20039;-76
2022/08/07 00:32:40;;;;;;;5.50;4.80;;;;;;;22.02;49.63;94547.78;5091841;28;20032;-76
2022/08/07 00:35:06;;;;;;;5.90;5.05;;;;;;;22.09;49.30;94564.44;5091626;28;20123;-76
2022/08/07 00:37:31;;;;;;;5.40;4.68;;;;;;;21.92;49.53;94548.16;5091897;28;20097;-76
2022/08/07 00:39:57;;;;;;;5.22;4.70;;;;;;;22.07;49.38;94569.16;5090181;28;20031;-76
2022/08/07 00:42:23;;;;;;;6.35;5.00;;;;;;;22.00;49.64;94563.84;5097135;28;20028;-76
2022/08/07 00:44:48;;;;;;;5.30;4.50;;;;;;;22.08;49.62;94573.41;5090838;28;20027;-76
2022/08/07 00:47:14;;;;;;;7.10;5.10;;;;;;;22.06;49.41;94575.44;5091774;28;20401;-75
2022/08/07 00:49:39;;;;;;;4.88;4.45;;;;;;;22.06;49.53;94570.16;5091650;28;20386;-76
2022/08/07 00:52:06;;;;;;;5.90;4.80;;;;;;;22.03;49.37;94559.97;5089005;28;20041;-76
2022/08/07 00:54:31;;;;;;;5.32;4.78;;;;;;;22.08;49.40;94570.75;5071209;28;20055;-76
2022/08/07 00:56:57;;;;;;;4.60;4.20;;;;;;;22.12;49.53;94569.34;5062051;28;20382;-76
2022/08/07 00:59:22;;;;;;;5.88;4.55;;;;;;;22.06;49.54;94568.34;5069692;28;20035;-76
2022/08/07 01:01:49;;;;;;;5.10;4.60;;;;;;;22.14;49.30;94577.88;5057864;28;20417;-76
2022/08/07 01:04:15;;;;;;;6.50;4.70;;;;;;;22.17;49.34;94574.81;5082158;28;20141;-76
2022/08/07 01:06:40;;;;;;;5.50;4.80;;;;;;;22.16;49.47;94567.91;5074441;28;20115;-77
2022/08/07 01:09:06;;;;;;;5.10;4.47;;;;;;;21.83;49.70;94523.78;5074467;28;20625;-76
2022/08/07 01:11:32;;;;;;;5.63;5.07;;;;;;;22.06;49.36;94547.19;5074466;28;20516;-76
2022/08/07 01:13:57;;;;;;;5.18;4.50;;;;;;;22.11;49.15;94553.66;5073563;28;20481;-76
2022/08/07 01:16:22;;;;;;;5.30;4.55;;;;;;;22.23;49.20;94565.28;5074253;28;20028;-75
2022/08/07 01:18:48;;;;;;;6.00;4.63;;;;;;;22.10;49.37;94555.50;5074432;28;20036;-76
2022/08/07 01:21:17;;;;;;;5.30;4.80;;;;;;;22.19;49.33;94570.19;5090914;28;20414;-76
2022/08/07 01:23:44;;;;;;;4.88;4.45;;;;;;;22.28;49.82;94574.22;5082737;28;20029;-77
2022/08/07 01:26:11;;;;;;;4.97;4.53;;;;;;;22.28;50.37;94573.41;5070488;28;20028;-78
2022/08/07 01:28:38;;;;;;;4.72;4.32;;;;;;;22.26;49.55;94576.28;5094393;28;20034;-76
2022/08/07 01:31:03;;;;;;;5.18;4.60;;;;;;;22.07;50.06;94563.84;5111212;28;20107;-77
2022/08/07 01:33:29;;;;;;;5.20;4.70;;;;;;;21.95;50.43;94555.69;5094153;28;20413;-77
2022/08/07 01:35:56;;;;;;;5.25;4.40;;;;;;;22.06;50.34;94581.56;5094251;28;20108;-77
2022/08/07 01:38:21;;;;;;;5.40;4.63;;;;;;;22.07;50.76;94582.38;5077214;28;20485;-76
2022/08/07 01:40:47;;;;;;;5.10;4.53;;;;;;;22.06;50.71;94586.00;5108860;28;20107;-76
2022/08/07 01:43:12;;;;;;;4.65;4.20;;;;;;;21.95;51.85;94587.44;5057050;28;20382;-76
2022/08/07 01:45:38;;;;;;;5.40;4.60;;;;;;;21.99;51.86;94587.84;5090652;28;20115;-76
2022/08/07 01:48:03;;;;;;;5.20;4.60;;;;;;;21.85;52.51;94569.34;5091950;28;20058;-76
2022/08/07 01:50:29;;;;;;;5.75;4.60;;;;;;;21.92;52.59;94597.59;5073539;28;20024;-77
2022/08/07 01:52:56;;;;;;;5.57;4.28;;;;;;;21.87;52.48;94592.94;5087056;28;20403;-77
2022/08/07 01:55:26;;;;;;;5.22;4.70;;;;;;;21.81;52.35;94599.84;5090131;28;20061;-77
2022/08/07 01:57:51;;;;;;;6.38;5.07;;;;;;;21.78;52.14;94616.09;5089973;28;20055;-76
2022/08/07 02:00:17;;;;;;;5.93;4.75;;;;;;;21.66;53.22;94632.75;5073349;28;20489;-76
2022/08/07 02:02:45;;;;;;;5.85;4.47;;;;;;;21.50;53.87;94662.97;5072374;28;20512;-76
2022/08/07 02:05:13;;;;;;;5.40;4.82;;;;;;;21.39;54.76;94691.59;5073591;28;20035;-76
2022/08/07 02:07:42;;;;;;;5.90;5.30;;;;;;;21.35;54.92;94682.41;5073145;28;20028;-77
2022/08/07 02:10:07;;;;;;;5.80;5.20;;;;;;;20.96;54.42;94638.94;5080194;28;20059;-77
2022/08/07 02:12:38;;;;;;;6.40;5.43;;;;;;;21.20;54.34;94677.28;5069706;28;20064;-77
2022/08/07 02:15:04;;;;;;;6.22;5.50;;;;;;;21.26;54.51;94698.63;5069978;28;20028;-77
2022/08/07 02:17:30;;;;;;;9.15;5.68;;;;;;;21.25;54.81;94707.53;5084914;28;20028;-77
2022/08/07 02:19:55;;;;;;;6.57;5.90;;;;;;;21.27;60.36;94711.63;5090094;28;20421;-77
2022/08/07 02:22:22;;;;;;;9.43;6.15;;;;;;;21.24;61.86;94704.09;5073011;28;20028;-77
2022/08/07 02:24:48;;;;;;;7.45;6.40;;;;;;;21.24;61.75;94703.28;5089550;28;20406;-76
2022/08/07 02:27:15;;;;;;;8.88;6.45;;;;;;;21.17;62.67;94700.59;5073054;28;20046;-77
2022/08/07 02:29:40;;;;;;;6.97;6.28;;;;;;;20.95;63.67;94684.84;5073281;28;20025;-76
2022/08/07 02:32:06;;;;;;;12.75;6.72;;;;;;;20.99;63.71;94695.84;5073223;28;20459;-77
2022/08/07 02:34:31;;;;;;;6.80;6.18;;;;;;;20.75;64.93;94675.97;5089040;28;20103;-76
2022/08/07 02:36:57;;;;;;;7.28;6.57;;;;;;;20.62;65.60;94663.53;5072711;28;20043;-77
2022/08/07 02:39:23;;;;;;;8.60;6.50;;;;;;;20.59;66.61;94666.53;5072922;28;20160;-77
2022/08/07 02:41:49;;;;;;;8.35;6.68;;;;;;;20.42;66.89;94642.25;5089433;28;20024;-76
2022/08/07 02:44:14;;;;;;;8.55;6.82;;;;;;;20.47;67.17;94662.75;5073167;28;20048;-77
2022/08/07 02:46:40;;;;;;;10.50;7.03;;;;;;;20.30;67.32;94644.56;5089929;28;20409;-76
2022/08/07 02:49:05;;;;;;;7.82;7.00;;;;;;;20.16;67.21;94634.91;5069179;28;20025;-76
2022/08/07 02:51:32;;;;;;;8.25;7.20;;;;;;;20.15;67.77;94629.84;5086798;28;20040;-76
2022/08/07 02:53:59;;;;;;;9.18;7.00;;;;;;;20.17;66.78;94643.63;5069461;28;20549;-76
2022/08/07 02:56:25;;;;;;;9.38;7.32;;;;;;;20.08;67.79;94622.69;5083600;28;20111;-76
2022/08/07 02:58:50;;;;;;;8.93;7.43;;;;;;;20.05;67.00;94625.69;5072541;28;20035;-76
2022/08/07 03:01:17;;;;;;;8.60;6.80;;;;;;;20.10;66.70;94635.69;5071681;28;20488;-76
2022/08/07 03:03:43;;;;;;;7.95;6.93;;;;;;;19.99;66.36;94613.28;5072652;28;20036;-76
2022/08/07 03:06:08;;;;;;;7.85;7.05;;;;;;;20.07;66.63;94628.97;5076084;28;20027;-76
2022/08/07 03:08:33;;;;;;;9.48;6.50;;;;;;;19.83;67.39;94587.19;5076876;28;20479;-75
2022/08/07 03:10:59;;;;;;;8.00;6.30;;;;;;;20.12;67.20;94614.41;5093301;28;20024;-76
2022/08/07 03:13:24;;;;;;;7.82;6.00;;;;;;;20.08;66.37;94604.22;5093323;28;20105;-76
2022/08/07 03:15:50;;;;;;;7.05;6.30;;;;;;;20.18;65.94;94608.38;5093174;28;20421;-75
2022/08/07 03:18:16;;;;;;;7.50;6.75;;;;;;;20.09;67.48;94608.50;5076614;28;20455;-76
2022/08/07 03:20:41;;;;;;;7.45;6.50;;;;;;;20.06;67.29;94600.19;5093394;28;20030;-76
2022/08/07 03:23:07;;;;;;;8.13;7.00;;;;;;;19.88;67.05;94584.00;5094271;28;20601;-76
2022/08/07 03:25:32;;;;;;;7.22;6.53;;;;;;;20.01;67.40;94600.72;5093114;28;20501;-76
2022/08/07 03:27:58;;;;;;;6.65;5.93;;;;;;;20.06;67.92;94594.91;5076404;28;20553;-76
2022/08/07 03:30:24;;;;;;;6.97;6.28;;;;;;;19.99;68.34;94589.56;5092728;28;20038;-76
2022/08/07 03:32:49;;;;;;;7.22;5.97;;;;;;;19.88;67.16;94576.88;5092823;28;20032;-76
2022/08/07 03:35:24;;;;;;;7.65;6.10;;;;;;;20.08;67.38;94598.13;5075915;28;20035;-75
2022/08/07 03:37:53;;;;;;;6.85;6.15;;;;;;;20.13;67.82;94602.84;5093176;28;20478;-76
2022/08/07 03:40:18;;;;;;;6.55;5.95;;;;;;;19.95;67.29;94566.41;5093000;28;20038;-76
2022/08/07 03:42:44;;;;;;;7.38;6.20;;;;;;;20.16;66.79;94594.56;5075658;28;20036;-76
2022/08/07 03:45:10;;;;;;;6.82;6.13;;;;;;;20.11;67.45;94576.66;5093771;28;20081;-75
2022/08/07 03:47:35;;;;;;;6.97;6.20;;;;;;;20.25;66.96;94598.66;5076034;28;20039;-76
2022/08/07 03:50:01;;;;;;;7.15;6.45;;;;;;;20.26;67.87;94593.22;5092896;28;20032;-76
2022/08/07 03:52:27;;;;;;;6.53;5.93;;;;;;;20.31;67.15;94593.47;5091928;28;20036;-76
2022/08/07 03:54:55;;;;;;;6.43;5.82;;;;;;;20.51;67.45;94600.69;5075995;28;20031;-76
2022/08/07 03:57:21;;;;;;;6.55;5.90;;;;;;;20.56;67.63;94605.41;5065091;28;20050;-75
2022/08/07 03:59:46;;;;;;;6.60;5.97;;;;;;;20.38;66.80;94575.03;5075811;28;20028;-76
2022/08/07 04:02:12;;;;;;;6.05;5.35;;;;;;;20.47;67.17;94580.97;5074988;28;20483;-76
2022/08/07 04:04:41;;;;;;;6.65;5.93;;;;;;;20.54;67.63;94602.97;5075671;28;20039;-76
2022/08/07 04:07:07;;;;;;;6.68;5.95;;;;;;;20.43;67.65;94616.66;5075882;28;20070;-76
2022/08/07 04:09:33;;;;;;;6.72;6.13;;;;;;;20.62;68.39;94628.41;5091871;28;20111;-76
2022/08/07 04:11:58;;;;;;;6.90;6.07;;;;;;;20.68;67.66;94624.97;5075354;28;20107;-76
2022/08/07 04:14:24;;;;;;;7.38;6.45;;;;;;;20.78;67.20;94628.06;5092329;28;20039;-76
2022/08/07 04:16:49;;;;;;;9.02;6.72;;;;;;;20.84;70.22;94629.97;5074766;28;20024;-76
2022/08/07 04:19:15;;;;;;;8.18;6.65;;;;;;;21.04;68.16;94635.34;5091771;28;20429;-76
2022/08/07 04:21:40;;;;;;;7.45;6.47;;;;;;;21.30;68.56;94645.19;5075546;28;20032;-76
2022/08/07 04:24:09;;;;;;;6.82;6.13;;;;;;;21.49;66.91;94645.50;5092137;28;20105;-76
2022/08/07 04:26:35;;;;;;;8.25;6.03;;;;;;;21.60;67.66;94640.47;5091993;28;20031;-76
2022/08/07 04:29:01;;;;;;;6.75;5.57;;;;;;;22.11;65.93;94644.41;5092139;28;20118;-77
2022/08/07 04:31:26;;;;;;;6.88;6.18;;;;;;;22.29;64.26;94636.72;5075398;28;20523;-77
2022/08/07 04:33:52;;;;;;;5.80;5.20;;;;;;;22.44;65.17;94656.88;5091555;28;20042;-77
2022/08/07 04:36:17;;;;;;;5.93;5.20;;;;;;;22.55;63.99;94642.22;5092054;28;20028;-77
2022/08/07 04:38:43;;;;;;;8.38;5.50;;;;;;;22.91;62.31;94641.75;5058050;28;20395;-77
2022/08/07 04:41:09;;;;;;;6.32;5.60;;;;;;;23.18;61.66;94616.03;5074572;28;20059;-77
2022/08/07 04:43:38;;;;;;;6.95;5.72;;;;;;;24.03;60.09;94650.28;5090691;28;20440;-77
2022/08/07 04:46:25;;;;;;;5.60;5.10;;;;;;;24.72;57.58;94649.38;5068139;28;20028;-78
2022/08/07 04:48:50;;;;;;;5.90;5.30;;;;;;;25.33;56.38;94647.75;5090680;28;20039;-78
2022/08/07 04:51:29;;;;;;;5.35;4.85;;;;;;;25.72;56.17;94616.38;5087191;28;20166;-78
2022/08/07 04:53:58;;;;;;;5.28;4.78;;;;;;;26.53;54.20;94654.13;5070281;28;20611;-81
2022/08/07 04:56:30;;;;;;;5.15;4.68;;;;;;;27.11;52.62;94655.97;5080626;28;20019;-78
2022/08/07 04:59:10;;;;;;;5.85;5.28;;;;;;;27.95;48.66;94666.25;5088078;28;20511;-80
2022/08/07 05:01:44;;;;;;;6.20;5.60;;;;;;;28.32;44.93;94631.09;5080174;28;20581;-80
2022/08/07 05:04:15;;;;;;;5.45;4.72;;;;;;;28.39;46.62;94639.78;5082000;28;20108;-81
2022/08/07 05:06:46;;;;;;;6.95;5.55;;;;;;;28.61;44.77;94665.78;5087010;28;20032;-82
2022/08/07 05:09:28;;;;;;;5.93;5.43;;;;;;;28.34;45.16;94666.41;5088420;28;20028;-81
2022/08/07 05:11:54;;;;;;;6.18;5.65;;;;;;;27.63;45.23;94649.84;5089685;28;20055;-81
2022/08/07 05:14:29;;;;;;;6.35;5.75;;;;;;;27.76;46.76;94664.78;5089293;28;20043;-80
2022/08/07 05:16:56;;;;;;;6.90;6.03;;;;;;;27.78;46.12;94681.38;5071864;28;20156;-81
2022/08/07 05:19:23;;;;;;;6.70;6.00;;;;;;;27.39;45.71;94683.78;5091769;28;20413;-81
2022/08/07 05:21:52;;;;;;;6.07;5.50;;;;;;;26.97;47.09;94673.25;5088326;28;20035;-80
2022/08/07 05:24:18;;;;;;;7.05;5.63;;;;;;;27.09;47.56;94684.72;5079129;28;20039;-80
2022/08/07 05:26:44;;;;;;;6.28;5.65;;;;;;;26.93;48.42;94677.41;5069868;28;20122;-79
2022/08/07 05:29:09;;;;;;;6.07;5.45;;;;;;;26.94;48.08;94689.69;5071325;28;20036;-79
2022/08/07 05:31:39;;;;;;;6.45;5.85;;;;;;;26.94;47.04;94689.69;5057732;28;20031;-80
2022/08/07 05:34:12;;;;;;;7.25;5.88;;;;;;;26.92;48.15;94689.13;5089407;28;20403;-81
2022/08/07 05:36:39;;;;;;;10.38;5.97;;;;;;;27.00;48.67;94694.09;5076233;28;20044;-80
2022/08/07 05:39:04;;;;;;;6.32;5.72;;;;;;;27.30;49.27;94688.69;5068613;28;20029;-78
2022/08/07 05:41:30;;;;;;;6.43;5.80;;;;;;;27.46;47.23;94684.44;5070678;28;20040;-77
2022/08/07 05:43:55;;;;;;;7.22;5.47;;;;;;;27.53;47.77;94693.16;5087856;28;20028;-77
2022/08/07 05:46:21;;;;;;;8.23;6.05;;;;;;;27.46;46.38;94694.31;5069877;28;20063;-77
2022/08/07 05:48:48;;;;;;;6.70;5.57;;;;;;;27.77;47.15;94690.41;5067828;28;20126;-77
2022/08/07 05:51:13;;;;;;;7.85;5.78;;;;;;;27.77;46.70;94693.88;5076809;28;20024;-77
2022/08/07 05:53:39;;;;;;;6.20;5.60;;;;;;;27.99;45.34;94702.06;5071200;28;20115;-77
2022/08/07 05:56:05;;;;;;;6.20;5.60;;;;;;;27.94;45.97;94707.31;5071542;28;20394;-77
2022/08/07 05:58:30;;;;;;;6.38;5.78;;;;;;;27.91;45.47;94718.47;5054589;28;20036;-78
2022/08/07 06:00:56;;;;;;;6.70;5.97;;;;;;;28.01;44.97;94710.66;5090284;28;20503;-78
2022/08/07 06:03:21;;;;;;;6.90;5.43;;;;;;;28.03;45.27;94705.91;5076138;28;20094;-77
2022/08/07 06:05:47;;;;;;;6.28;5.70;;;;;;;28.14;46.26;94716.75;5087872;28;20028;-77
2022/08/07 06:08:13;;;;;;;7.38;6.22;;;;;;;28.05;46.06;94719.84;5072717;28;20416;-77
2022/08/07 06:10:39;;;;;;;6.03;5.38;;;;;;;27.94;46.01;94714.50;5088728;28;20043;-77
2022/08/07 06:13:04;;;;;;;6.40;5.38;;;;;;;28.19;46.86;94714.19;5074920;28;20036;-78
2022/08/07 06:15:30;;;;;;;5.95;5.28;;;;;;;28.34;45.44;94717.16;5090472;28;20028;-80
2022/08/07 06:17:55;;;;;;;7.45;6.03;;;;;;;28.35;45.64;94702.72;5085026;28;20050;-80
2022/08/07 06:20:22;;;;;;;6.15;5.28;;;;;;;28.56;44.01;94711.94;5090064;28;20516;-80
2022/08/07 06:22:47;;;;;;;5.63;4.95;;;;;;;28.40;43.78;94694.81;5089596;28;20390;-80
2022/08/07 06:25:13;;;;;;;6.25;5.45;;;;;;;28.41;44.36;94712.44;5095721;28;20015;-79
2022/08/07 06:27:38;;;;;;;5.68;5.18;;;;;;;28.38;46.39;94712.94;5089110;28;20044;-76
2022/08/07 06:30:04;;;;;;;5.80;5.30;;;;;;;28.65;45.56;94707.81;5090175;28;20043;-77
2022/08/07 06:32:30;;;;;;;5.63;4.95;;;;;;;28.78;43.81;94711.22;5090236;28;20133;-78
2022/08/07 06:34:55;;;;;;;5.72;4.75;;;;;;;28.83;41.29;94720.13;5087827;28;20047;-81
2022/08/07 06:37:21;;;;;;;7.57;5.15;;;;;;;28.89;40.54;94705.81;5088209;28;20043;-79
2022/08/07 06:39:46;;;;;;;7.25;5.22;;;;;;;28.71;40.32;94684.66;5084831;28;20028;-78
2022/08/07 06:42:18;;;;;;;6.88;4.97;;;;;;;28.91;40.99;94709.03;5086806;28;20025;-77
2022/08/07 06:44:44;;;;;;;5.90;5.28;;;;;;;29.05;38.72;94714.88;5069340;28;20104;-78
2022/08/07 06:47:10;;;;;;;6.22;5.00;;;;;;;29.10;40.65;94695.44;5053252;28;20061;-81
2022/08/07 06:49:35;;;;;;;6.80;5.03;;;;;;;29.30;39.96;94708.28;5073459;28;20078;-80
2022/08/07 06:52:01;;;;;;;5.78;5.13;;;;;;;29.37;39.23;94708.94;5092990;28;20035;-78
2022/08/07 06:54:26;;;;;;;5.93;5.32;;;;;;;29.13;39.56;94713.66;5070474;28;20052;-79
2022/08/07 06:56:56;;;;;;;6.75;5.30;;;;;;;29.08;41.54;94713.56;5066497;28;20028;-79
2022/08/07 06:59:24;;;;;;;6.27;5.70;;;;;;;29.29;40.15;94720.03;5087494;28;20031;-78
2022/08/07 07:01:50;;;;;;;6.43;5.72;;;;;;;29.24;39.27;94698.56;5071046;28;20055;-75
2022/08/07 07:04:16;;;;;;;6.05;5.45;;;;;;;29.39;39.80;94721.00;5082911;28;20036;-76
2022/08/07 07:06:43;;;;;;;6.65;5.70;;;;;;;29.48;39.51;94704.53;5087208;28;20051;-76
2022/08/07 07:09:21;;;;;;;6.30;5.70;;;;;;;29.70;38.48;94718.75;5079349;28;20085;-77
2022/08/07 07:11:58;;;;;;;7.05;6.18;;;;;;;29.65;38.72;94715.22;5101191;28;20039;-78
2022/08/07 07:14:24;;;;;;;6.22;5.70;;;;;;;29.76;38.57;94703.56;5088702;28;20036;-78
2022/08/07 07:16:50;;;;;;;6.40;5.80;;;;;;;29.86;38.52;94711.69;5072164;28;20513;-78
2022/08/07 07:19:15;;;;;;;8.13;6.70;;;;;;;29.99;38.96;94715.88;5068734;28;20433;-77
2022/08/07 07:21:41;;;;;;;9.40;6.75;;;;;;;29.96;38.54;94705.66;5052480;28;20046;-77
2022/08/07 07:24:09;;;;;;;7.88;6.53;;;;;;;30.00;38.23;94712.13;5068138;28;20513;-78
2022/08/07 07:26:34;;;;;;;7.30;6.63;;;;;;;30.16;37.99;94710.44;5055708;28;20064;-77
2022/08/07 07:29:07;;;;;;;9.57;6.72;;;;;;;30.26;37.36;94703.34;5062822;28;20482;-78
2022/08/07 07:31:38;;;;;;;6.75;6.15;;;;;;;30.37;37.61;94711.47;5070096;28;20036;-78
2022/08/07 07:34:05;;;;;;;6.38;5.78;;;;;;;30.53;36.20;94728.50;5076344;28;20085;-78
2022/08/07 07:36:30;;;;;;;7.25;5.80;;;;;;;30.61;36.85;94731.53;5065942;28;20264;-78
2022/08/07 07:38:57;;;;;;;6.32;5.72;;;;;;;30.63;36.21;94726.72;5085612;28;20046;-78
2022/08/07 07:41:22;;;;;;;6.97;6.13;;;;;;;30.65;36.92;94732.66;5068661;28;20032;-77
2022/08/07 07:43:49;;;;;;;7.03;6.30;;;;;;;30.72;36.26;94727.88;5088001;28;20108;-77
2022/08/07 07:46:15;;;;;;;7.20;6.50;;;;;;;30.77;36.35;94731.69;5069854;28;20389;-77
2022/08/07 07:48:40;;;;;;;7.05;6.35;;;;;;;30.73;36.40;94729.50;5048984;28;20323;-76
2022/08/07 07:51:06;;;;;;;7.00;6.25;;;;;;;30.71;36.72;94728.16;5077227;28;20024;-76
2022/08/07 07:53:31;;;;;;;10.32;6.07;;;;;;;30.82;35.63;94721.03;5071687;28;20048;-77
2022/08/07 07:55:58;;;;;;;7.53;6.30;;;;;;;30.80;35.66;94729.31;5078939;28;20413;-76
2022/08/07 07:58:28;;;;;;;8.27;6.32;;;;;;;30.82;35.51;94723.72;5073738;28;20035;-76
2022/08/07 08:00:54;;;;;;;6.60;6.00;;;;;;;30.51;35.77;94723.41;5090416;28;20114;-78
2022/08/07 08:03:19;;;;;;;6.75;5.97;;;;;;;30.54;35.82;94725.59;5092110;28;20035;-76
2022/08/07 08:05:45;;;;;;;7.35;6.65;;;;;;;30.50;35.87;94700.34;5073831;28;20073;-75
2022/08/07 08:08:11;;;;;;;7.25;6.55;;;;;;;30.67;35.24;94730.53;5075062;28;20043;-75
2022/08/07 08:10:36;;;;;;;7.35;6.65;;;;;;;30.60;34.62;94726.44;5058426;28;20028;-76
2022/08/07 08:13:02;;;;;;;8.00;7.30;;;;;;;30.42;35.02;94722.25;5091946;28;20032;-76
2022/08/07 08:15:28;;;;;;;8.50;7.00;;;;;;;30.53;35.39;94732.00;5070405;28;20103;-77
2022/08/07 08:17:54;;;;;;;8.63;6.68;;;;;;;30.62;34.35;94729.66;5067587;28;20129;-76
2022/08/07 08:20:20;;;;;;;10.07;6.90;;;;;;;30.67;34.27;94730.53;5061143;28;20148;-76
2022/08/07 08:28:19;;;;;;;8.90;7.95;;;;;;;30.69;34.52;94731.06;5070408;28;20072;-77
2022/08/07 08:30:44;;;;;;;9.80;8.80;;;;;;;30.62;34.26;94727.81;5071792;28;20112;-76
2022/08/07 08:33:14;;;;;;;8.80;7.93;;;;;;;30.41;34.36;94728.66;5076182;28;20037;-77
2022/08/07 08:35:40;;;;;;;11.05;8.32;;;;;;;30.23;35.32;94713.78;5094251;28;20043;-76
2022/08/07 08:38:05;;;;;;;8.63;7.28;;;;;;;30.13;35.50;94725.13;5088692;28;20068;-76
2022/08/07 08:40:46;;;;;;;8.43;7.53;;;;;;;29.99;35.88;94739.97;5073662;28;20040;-76
2022/08/07 08:43:39;;;;;;;8.80;7.93;;;;;;;29.77;35.97;94742.66;5063226;28;20056;-76
2022/08/07 08:46:36;;;;;;;8.13;7.32;;;;;;;29.61;36.73;94738.94;5087281;28;20153;-76
2022/08/07 08:49:14;;;;;;;8.13;6.97;;;;;;;29.48;36.96;94747.34;5084968;28;20516;-76
2022/08/07 08:51:50;;;;;;;8.68;7.78;;;;;;;29.51;37.18;94741.50;5071514;28;20032;-76
2022/08/07 08:54:30;;;;;;;8.40;6.95;;;;;;;29.60;37.06;94740.81;5086726;28;20055;-76
2022/08/07 08:56:57;;;;;;;15.73;7.68;;;;;;;29.60;36.86;94740.00;5087269;28;20036;-76
2022/08/07 08:59:49;;;;;;;9.30;7.80;;;;;;;29.44;38.11;94741.66;5069299;28;20050;-76
2022/08/07 09:02:36;;;;;;;9.75;7.75;;;;;;;29.18;37.64;94740.47;5086299;28;20315;-76
2022/08/07 09:05:26;;;;;;;10.07;7.90;;;;;;;28.82;37.42;94737.22;5084254;28;20086;-76
2022/08/07 09:08:12;;;;;;;;;;;;;;;28.62;38.35;94732.34;5071279;28;20421;-76
2022/08/07 09:10:59;;;;;;;9.32;8.32;;;;;;;28.60;39.06;94737.13;5052381;28;19962;-76
2022/08/07 09:13:38;;;;;;;7.82;7.00;;;;;;;28.63;38.97;94727.81;5072323;28;20043;-76
2022/08/07 09:16:10;;;;;;;11.48;7.93;;;;;;;28.55;38.70;94725.53;5071022;28;20024;-76
2022/08/07 09:18:54;;;;;;;7.60;6.90;;;;;;;28.67;38.27;94727.09;5072303;28;20035;-76
2022/08/07 09:21:41;;;;;;;8.52;7.10;;;;;;;28.77;36.72;94721.09;5072358;28;20036;-76
2022/08/07 09:24:30;;;;;;;7.00;6.25;;;;;;;28.68;38.42;94719.88;5072133;28;20029;-76
2022/08/07 09:27:04;;;;;;;7.13;6.53;;;;;;;28.51;38.00;94717.19;5070860;28;20425;-76
2022/08/07 09:30:02;;;;;;;7.72;6.97;;;;;;;28.60;37.81;94709.59;5071904;28;20437;-76
2022/08/07 09:32:52;;;;;;;7.28;6.57;;;;;;;28.76;37.80;94711.47;5071646;28;20071;-77
2022/08/07 09:35:35;;;;;;;;;;;;;;;28.78;37.73;94714.72;5072442;28;20064;-77
2022/08/07 09:38:06;;;;;;;8.57;6.45;;;;;;;28.81;36.95;94708.88;5072387;28;19928;-76
2022/08/07 09:40:34;;;;;;;7.18;6.47;;;;;;;28.76;37.91;94698.09;5087326;28;20028;-76
2022/08/07 09:43:37;;;;;;;7.07;6.30;;;;;;;28.89;37.80;94704.97;5070800;28;20036;-77
2022/08/07 09:46:13;;;;;;;6.53;5.88;;;;;;;28.96;37.95;94701.09;5070494;28;20039;-76
2022/08/07 09:48:45;;;;;;;6.78;6.18;;;;;;;29.06;37.69;94707.66;5070634;28;20445;-77
2022/08/07 09:51:44;;;;;;;6.53;5.93;;;;;;;28.79;36.55;94708.31;5087460;28;20073;-76
2022/08/07 09:54:25;;;;;;;6.73;6.03;;;;;;;28.95;38.02;94696.00;5070119;28;20044;-76
2022/08/07 09:57:29;;;;;;;6.28;5.68;;;;;;;28.63;36.09;94695.75;5087156;28;20070;-76
2022/08/07 10:00:05;;;;;;;7.03;5.78;;;;;;;28.76;36.35;94692.75;5070350;28;20039;-75
2022/08/07 10:02:34;;;;;;;6.15;5.55;;;;;;;28.78;37.17;94690.66;5069966;28;20128;-75
2022/08/07 10:05:08;;;;;;;6.68;6.07;;;;;;;28.82;36.69;94690.97;5071543;28;20040;-75
2022/08/07 10:07:58;;;;;;;6.03;5.43;;;;;;;28.47;36.71;94674.13;5071532;28;20040;-75
2022/08/07 10:10:55;;;;;;;6.18;5.63;;;;;;;28.51;36.84;94687.81;5084341;28;20035;-75
2022/08/07 10:13:49;;;;;;;7.22;5.57;;;;;;;28.63;37.64;94687.72;5069400;28;20055;-75
2022/08/07 10:16:34;;;;;;;6.25;5.65;;;;;;;28.84;36.98;94688.88;5071072;28;20250;-75
2022/08/07 10:19:08;;;;;;;6.45;5.85;;;;;;;28.86;36.19;94684.91;5086744;28;20038;-75
2022/08/07 10:21:57;;;;;;;7.47;5.55;;;;;;;28.91;36.64;94684.16;5071175;28;20044;-75
2022/08/07 10:24:47;;;;;;;6.20;5.60;;;;;;;28.94;36.30;94671.09;5069858;28;20521;-77
2022/08/07 10:27:31;;;;;;;5.75;5.18;;;;;;;28.94;35.57;94660.41;5073778;28;20075;-75
2022/08/07 10:30:05;;;;;;;5.80;5.30;;;;;;;29.22;35.02;94663.25;5069787;28;20094;-77
2022/08/07 10:32:34;;;;;;;5.90;5.15;;;;;;;29.30;35.60;94677.00;5071159;28;20482;-77
2022/08/07 10:35:14;;;;;;;5.95;5.30;;;;;;;29.31;35.54;94678.63;5070838;28;20060;-77
2022/08/07 10:37:58;;;;;;;6.40;5.45;;;;;;;29.26;35.01;94675.88;5069851;28;20031;-77
2022/08/07 10:40:24;;;;;;;7.25;5.10;;;;;;;29.37;35.98;94682.97;5069610;28;20509;-77
2022/08/07 10:43:14;;;;;;;5.75;5.18;;;;;;;29.53;35.04;94677.81;5071489;28;20025;-77
2022/08/07 10:45:48;;;;;;;6.50;5.50;;;;;;;29.53;35.20;94659.09;5069698;28;20089;-77
2022/08/07 10:48:18;;;;;;;6.78;5.47;;;;;;;29.59;34.68;94687.53;5069721;28;20029;-74
2022/08/07 10:50:50;;;;;;;;;;;;;;;29.43;35.03;94681.19;5086734;28;20040;-75
2022/08/07 10:53:25;;;;;;;5.75;5.15;;;;;;;29.42;34.55;94686.78;5052522;28;19920;-75
2022/08/07 10:55:52;;;;;;;5.65;4.82;;;;;;;29.38;34.88;94687.25;5086336;28;20085;-74
2022/08/07 10:58:46;;;;;;;5.43;4.93;;;;;;;29.37;34.96;94676.84;5086326;28;20066;-77
2022/08/07 11:01:50;;;;;;;7.82;5.47;;;;;;;29.27;34.13;94682.03;5060858;28;20044;-82
2022/08/07 11:04:21;;;;;;;15.48;7.55;;;;;;;29.08;38.73;94682.31;5068600;28;20444;-81
2022/08/07 11:06:53;;;;;;;25.15;9.82;;;;;;;28.70;40.85;94715.91;5070712;28;20116;-82
2022/08/07 11:09:22;;;;;;;11.40;7.00;;;;;;;26.65;48.73;94670.09;5068942;28;20016;-81
2022/08/07 11:12:12;;;;;;;10.85;5.60;;;;;;;24.92;51.33;94696.19;5069289;28;20051;-82
2022/08/07 11:14:45;;;;;;;13.18;7.47;;;;;;;23.98;63.71;94655.41;5068893;28;20056;-80
2022/08/07 11:17:20;;;;;;;9.02;7.15;;;;;;;23.31;62.66;94650.41;5069221;28;20041;-80
2022/08/07 11:19:51;;;;;;;8.60;7.47;;;;;;;23.26;65.80;94705.84;5070423;28;20056;-80
2022/08/07 11:22:45;;;;;;;13.90;8.05;;;;;;;23.34;73.60;94696.88;5070621;28;20098;-80
2022/08/07 11:25:15;;;;;;;11.32;8.77;;;;;;;23.48;75.58;94679.91;5070792;28;20107;-80
2022/08/07 11:27:44;;;;;;;10.32;9.20;;;;;;;23.74;76.07;94692.28;5089737;28;20509;-81
2022/08/07 11:30:12;;;;;;;9.23;8.27;;;;;;;23.91;73.35;94684.63;5074121;28;20027;-81
2022/08/07 11:32:57;;;;;;;14.55;8.75;;;;;;;24.12;70.52;94701.25;5073234;28;20081;-81
2022/08/07 11:35:26;;;;;;;8.10;7.30;;;;;;;24.13;60.68;94647.16;5074138;28;20024;-82
2022/08/07 11:38:30;;;;;;;6.97;6.07;;;;;;;24.52;59.51;94683.25;5073272;28;20064;-80
2022/08/07 11:41:14;;;;;;;8.30;6.43;;;;;;;24.73;54.38;94680.19;5055012;28;20029;-80
2022/08/07 11:44:11;;;;;;;9.40;6.93;;;;;;;24.86;55.85;94673.97;5073963;28;20044;-84
2022/08/07 11:46:59;;;;;;;8.90;7.68;;;;;;;25.02;54.34;94666.44;5064518;28;20036;-84
2022/08/07 11:49:37;;;;;;;8.30;7.40;;;;;;;25.11;60.64;94671.25;5074017;28;20033;-84
2022/08/07 11:52:18;;;;;;;8.55;6.55;;;;;;;25.24;52.77;94674.81;5072987;28;20032;-85
2022/08/07 11:55:05;;;;;;;7.63;6.85;;;;;;;25.30;56.99;94672.09;5072686;28;20543;-85